Time;durP1;ratioP1;P1;durP2;ratioP2;P2;SDS_P1;SDS_P2;PMS_P1;PMS_P2;Temp;Humidity;BMP_temperature;BMP_pressure;BME280_temperature;BME280_humidity;BME280_pressure;Samples;Min_cycle;Max_cycle;Signal;HPM_P1;HPM_P2
2023/12/04 00:01:47;;;;;;;34.30;16.30;;;-0.50;99.90;;;;;;4950125;28;20166;-94
2023/12/04 00:04:16;;;;;;;36.47;15.93;;;-0.80;99.90;;;;;;4996497;28;20047;-94
2023/12/04 00:06:42;;;;;;;33.63;15.23;;;0.10;99.90;;;;;;5003697;23;20062;-93
2023/12/04 00:09:08;;;;;;;35.97;15.40;;;0.80;99.90;;;;;;4993053;28;20050;-93
2023/12/04 00:11:34;;;;;;;33.70;14.93;;;0.70;99.90;;;;;;4993605;28;20046;-94
2023/12/04 00:14:00;;;;;;;35.90;17.43;;;-0.80;99.90;;;;;;4980780;28;20133;-94
2023/12/04 00:16:26;;;;;;;33.00;14.33;;;0.30;99.90;;;;;;4977430;28;20070;-94
2023/12/04 00:18:52;;;;;;;34.43;15.50;;;-0.80;99.90;;;;;;4976712;28;20482;-95
2023/12/04 00:21:20;;;;;;;33.30;15.47;;;-0.80;99.90;;;;;;4978523;28;20093;-95
2023/12/04 00:23:46;;;;;;;33.33;15.00;;;-1.00;99.90;;;;;;4980239;28;20081;-94
2023/12/04 00:26:12;;;;;;;33.17;15.20;;;-0.60;99.90;;;;;;4971087;28;20081;-94
2023/12/04 00:29:06;;;;;;;35.30;15.43;;;0.70;99.90;;;;;;4959653;28;20059;-94
2023/12/04 00:31:32;;;;;;;32.72;15.45;;;0.30;99.90;;;;;;4957362;28;20039;-94
2023/12/04 00:34:12;;;;;;;33.77;15.43;;;-0.90;99.90;;;;;;4957346;28;20047;-95
2023/12/04 00:37:02;;;;;;;31.90;14.70;;;1.70;99.90;;;;;;4967823;28;20048;-94
2023/12/04 00:39:50;;;;;;;35.67;15.63;;;-0.90;99.90;;;;;;4993847;28;20044;-94
2023/12/04 00:42:16;;;;;;;31.80;14.47;;;-0.20;99.90;;;;;;4976297;28;20038;-94
2023/12/04 00:44:43;;;;;;;32.77;15.13;;;-0.20;99.90;;;;;;4976980;28;20069;-94
2023/12/04 00:47:08;;;;;;;34.83;15.03;;;-0.60;99.90;;;;;;4980648;28;20038;-95
2023/12/04 00:49:36;;;;;;;36.23;15.77;;;0.00;99.90;;;;;;4980961;28;20050;-94
2023/12/04 00:52:04;;;;;;;32.47;15.37;;;-0.80;99.90;;;;;;4980247;28;20042;-94
2023/12/04 00:54:33;;;;;;;34.93;14.33;;;0.90;99.90;;;;;;4979913;28;20490;-95
2023/12/04 00:56:59;;;;;;;36.73;15.30;;;-0.40;99.90;;;;;;4980809;28;20057;-94
2023/12/04 00:59:25;;;;;;;32.80;14.67;;;-0.40;99.90;;;;;;4980027;28;20125;-94
2023/12/04 01:01:56;;;;;;;36.37;15.73;;;-1.00;99.90;;;;;;4980205;28;20405;-94
2023/12/04 01:04:23;;;;;;;32.50;15.40;;;-0.40;99.90;;;;;;4979749;28;20490;-94
2023/12/04 01:07:06;;;;;;;35.83;15.63;;;-0.90;99.90;;;;;;4979429;28;20564;-94
2023/12/04 01:09:47;;;;;;;32.80;15.38;;;-0.30;99.90;;;;;;4979687;28;20140;-94
2023/12/04 01:12:28;;;;;;;34.20;16.40;;;0.90;99.90;;;;;;4979335;28;20445;-94
2023/12/04 01:15:09;;;;;;;33.47;14.60;;;-0.90;99.90;;;;;;4979271;28;20141;-94
2023/12/04 01:17:35;;;;;;;35.80;15.13;;;-0.50;99.90;;;;;;4980340;28;20482;-94
2023/12/04 01:20:01;;;;;;;37.03;16.13;;;0.00;99.90;;;;;;4979182;28;20486;-94
2023/12/04 01:22:26;;;;;;;34.30;15.70;;;-0.40;99.90;;;;;;4979849;28;20053;-95
2023/12/04 01:24:52;;;;;;;35.43;15.60;;;-0.50;99.90;;;;;;4979477;28;20082;-93
2023/12/04 01:27:26;;;;;;;33.13;14.73;;;1.00;99.90;;;;;;4979283;28;20038;-94
2023/12/04 01:30:01;;;;;;;;;;;0.40;99.90;;;;;;4979834;28;20038;-94
2023/12/04 01:32:27;;;;;;;31.10;15.17;;;-0.40;99.90;;;;;;4979601;28;19921;-94
2023/12/04 01:34:52;;;;;;;32.17;15.03;;;-0.90;99.90;;;;;;4978619;28;20053;-94
2023/12/04 01:37:28;;;;;;;33.60;15.53;;;-0.40;99.90;;;;;;4984219;23;20048;-94
2023/12/04 01:39:53;;;;;;;31.30;14.30;;;0.20;99.90;;;;;;4979005;28;20050;-94
2023/12/04 01:42:26;;;;;;;36.30;15.80;;;-0.40;99.90;;;;;;4979228;28;20402;-94
2023/12/04 01:44:52;;;;;;;32.72;15.43;;;-0.20;99.90;;;;;;4962471;28;20054;-94
2023/12/04 01:47:24;;;;;;;34.27;14.90;;;-0.60;99.90;;;;;;4959715;28;20493;-94
2023/12/04 01:49:50;;;;;;;36.77;15.50;;;0.40;99.90;;;;;;4959493;28;20047;-94
2023/12/04 01:52:16;;;;;;;32.57;14.90;;;0.20;99.90;;;;;;4959428;28;20057;-94
2023/12/04 01:54:51;;;;;;;31.17;15.03;;;-0.10;99.90;;;;;;4959289;28;20050;-94
2023/12/04 02:03:56;;;;;;;32.13;14.90;;;-0.40;99.90;;;;;;4958594;28;20046;-93
2023/12/04 02:06:36;;;;;;;36.30;14.57;;;0.00;99.90;;;;;;4959516;28;20047;-94
2023/12/04 02:09:02;;;;;;;29.60;14.20;;;-0.60;99.90;;;;;;4959746;28;20054;-94
2023/12/04 02:11:28;;;;;;;30.27;13.60;;;-0.30;99.90;;;;;;4959100;28;20050;-94
2023/12/04 02:13:53;;;;;;;31.07;14.70;;;0.30;99.90;;;;;;4974099;28;20034;-93
2023/12/04 02:16:33;;;;;;;30.57;14.10;;;-0.70;99.90;;;;;;4983347;28;20043;-95
2023/12/04 02:18:59;;;;;;;31.57;14.97;;;-0.30;99.90;;;;;;4978027;28;20512;-93
2023/12/04 02:21:28;;;;;;;30.80;14.27;;;0.00;99.90;;;;;;4978547;28;20299;-93
2023/12/04 02:23:53;;;;;;;32.40;14.23;;;0.00;99.90;;;;;;4977300;28;20509;-95
2023/12/04 02:30:02;;;;;;;32.17;14.03;;;0.70;99.90;;;;;;4995782;28;20424;-94
2023/12/04 02:32:35;;;;;;;29.07;13.53;;;-1.10;99.90;;;;;;4977542;28;20050;-94
2023/12/04 02:35:15;;;;;;;33.65;13.95;;;-0.10;99.90;;;;;;4977732;28;20553;-94
2023/12/04 02:41:34;;;;;;;30.40;13.90;;;-1.00;99.90;;;;;;5481606;23;20058;-93
2023/12/04 02:44:06;;;;;;;32.03;14.13;;;0.30;99.90;;;;;;4977189;28;20050;-94
2023/12/04 02:46:35;;;;;;;33.17;14.33;;;1.30;99.90;;;;;;4976881;28;20046;-94
2023/12/04 02:49:00;;;;;;;31.03;14.73;;;0.70;99.90;;;;;;4977782;28;20057;-92
2023/12/04 02:51:32;;;;;;;30.63;15.33;;;-0.60;99.90;;;;;;4976873;28;20086;-92
2023/12/04 02:53:57;;;;;;;31.33;14.47;;;-0.30;99.90;;;;;;4977153;28;20038;-93
2023/12/04 02:56:23;;;;;;;32.63;14.83;;;0.00;99.90;;;;;;4977660;28;20527;-92
2023/12/04 02:58:54;;;;;;;32.07;15.03;;;0.00;99.90;;;;;;4976854;28;20046;-93
2023/12/04 03:01:28;;;;;;;29.23;13.77;;;0.30;99.90;;;;;;4977331;28;20050;-93
2023/12/04 03:03:54;;;;;;;31.07;13.57;;;-0.50;99.90;;;;;;4977267;28;20141;-94
2023/12/04 03:06:35;;;;;;;29.83;14.30;;;-0.40;99.90;;;;;;4989764;28;20100;-94
2023/12/04 03:09:20;;;;;;;30.80;14.83;;;-0.50;99.90;;;;;;4991798;28;20093;-93
2023/12/04 03:12:01;;;;;;;31.07;14.40;;;0.40;99.90;;;;;;4986419;28;20051;-94
2023/12/04 03:14:41;;;;;;;30.03;13.97;;;1.20;99.90;;;;;;4988306;28;20030;-94
2023/12/04 03:17:19;;;;;;;34.10;15.20;;;-0.50;99.90;;;;;;4988924;28;20101;-94
2023/12/04 03:19:57;;;;;;;28.93;13.90;;;-0.20;99.90;;;;;;4979439;28;20038;-94
2023/12/04 03:22:23;;;;;;;30.83;14.30;;;0.90;99.90;;;;;;4977100;28;20046;-93
2023/12/04 03:24:49;;;;;;;30.23;14.10;;;-0.60;99.90;;;;;;4977053;28;20045;-93
2023/12/04 03:27:15;;;;;;;30.60;13.50;;;-0.60;99.90;;;;;;4976442;28;20043;-94
2023/12/04 03:29:40;;;;;;;29.43;13.47;;;-0.50;99.90;;;;;;4976976;28;20046;-93
2023/12/04 03:32:06;;;;;;;30.57;14.27;;;-0.50;99.90;;;;;;4977034;28;20053;-93
2023/12/04 03:34:32;;;;;;;34.43;14.63;;;0.90;99.90;;;;;;4969161;28;20049;-93
2023/12/04 03:36:57;;;;;;;32.83;14.77;;;1.30;99.90;;;;;;4959088;28;20047;-94
2023/12/04 03:39:38;;;;;;;29.20;13.87;;;0.50;99.90;;;;;;4957416;28;20093;-93
2023/12/04 03:42:04;;;;;;;27.63;13.70;;;-0.40;99.90;;;;;;4956606;28;20154;-94
2023/12/04 03:44:30;;;;;;;29.30;14.33;;;-0.50;99.90;;;;;;4960465;28;20133;-93
2023/12/04 03:46:56;;;;;;;29.97;13.73;;;0.00;99.90;;;;;;4957751;28;20562;-93
2023/12/04 03:49:22;;;;;;;29.53;14.13;;;0.90;99.90;;;;;;4957346;28;20142;-94
2023/12/04 03:51:47;;;;;;;31.37;14.43;;;-0.40;99.90;;;;;;4958036;28;20479;-93
2023/12/04 03:54:13;;;;;;;31.90;13.93;;;-0.40;99.90;;;;;;4957214;28;20479;-93
2023/12/04 03:56:42;;;;;;;31.13;14.37;;;-0.30;99.90;;;;;;4957438;28;20047;-93
2023/12/04 03:59:10;;;;;;;28.20;13.97;;;-0.60;99.90;;;;;;4956814;28;20038;-93
2023/12/04 04:01:35;;;;;;;28.97;13.53;;;-0.60;99.90;;;;;;4957121;28;20089;-93
2023/12/04 04:04:01;;;;;;;28.23;13.17;;;-0.50;99.90;;;;;;4956115;28;20074;-93
2023/12/04 04:06:30;;;;;;;27.70;13.03;;;-0.30;99.90;;;;;;4957211;28;20039;-94
2023/12/04 04:08:56;;;;;;;29.43;14.33;;;-0.50;99.90;;;;;;4955814;28;20109;-92
2023/12/04 04:11:21;;;;;;;29.53;13.30;;;1.00;99.90;;;;;;4956840;28;20039;-93
2023/12/04 04:13:47;;;;;;;31.90;13.83;;;-0.50;99.90;;;;;;4957039;28;20046;-93
2023/12/04 04:16:15;;;;;;;27.87;13.10;;;-0.50;99.90;;;;;;4956236;28;20039;-93
2023/12/04 04:18:59;;;;;;;30.60;13.27;;;0.80;99.90;;;;;;4956808;28;20094;-93
2023/12/04 04:21:25;;;;;;;;;;;0.60;99.90;;;;;;4957148;28;20563;-92
2023/12/04 04:23:53;;;;;;;27.60;12.63;;;-0.50;99.90;;;;;;4956013;28;20024;-93
2023/12/04 04:26:34;;;;;;;29.37;13.87;;;0.10;99.90;;;;;;4957162;28;20545;-93
2023/12/04 04:29:15;;;;;;;29.17;12.97;;;0.50;99.90;;;;;;4956865;28;20129;-93
2023/12/04 04:31:40;;;;;;;26.90;13.13;;;-0.50;99.90;;;;;;4956847;28;20403;-93
2023/12/04 04:34:15;;;;;;;27.43;12.97;;;1.10;99.90;;;;;;4956847;28;20047;-93
2023/12/04 04:36:42;;;;;;;27.13;12.93;;;-0.50;99.90;;;;;;4956687;28;20085;-93
2023/12/04 04:39:07;;;;;;;27.63;12.70;;;-0.50;99.90;;;;;;4955508;28;20046;-93
2023/12/04 04:41:33;;;;;;;28.07;12.73;;;0.10;99.90;;;;;;4956147;28;20070;-93
2023/12/04 04:43:59;;;;;;;27.83;12.97;;;-0.40;99.90;;;;;;4955787;28;20055;-93
2023/12/04 04:46:26;;;;;;;29.47;13.87;;;0.70;99.90;;;;;;4957228;28;20050;-93
2023/12/04 04:48:52;;;;;;;27.77;12.87;;;-0.50;99.90;;;;;;4956448;28;20058;-93
2023/12/04 04:51:17;;;;;;;25.73;12.20;;;-0.50;99.90;;;;;;4956250;28;20047;-93
2023/12/04 04:53:43;;;;;;;29.53;14.17;;;-0.20;99.90;;;;;;4972873;28;20049;-93
2023/12/04 04:56:09;;;;;;;29.53;13.73;;;0.20;99.90;;;;;;4956428;28;20042;-93
2023/12/04 04:58:38;;;;;;;27.00;12.57;;;-0.10;99.90;;;;;;4956324;28;20057;-94
2023/12/04 05:01:04;;;;;;;26.17;12.90;;;0.80;99.90;;;;;;4966142;28;20038;-94
2023/12/04 05:03:30;;;;;;;29.43;12.87;;;-0.10;99.90;;;;;;4980170;28;20112;-93
2023/12/04 05:05:58;;;;;;;25.93;13.00;;;-0.40;99.90;;;;;;4990622;28;20046;-93
2023/12/04 05:08:24;;;;;;;25.73;12.50;;;0.50;99.90;;;;;;4991482;28;20540;-93
2023/12/04 05:10:50;;;;;;;29.87;13.00;;;-0.10;99.90;;;;;;4992164;28;20078;-93
2023/12/04 05:13:15;;;;;;;26.50;12.73;;;1.30;99.90;;;;;;4994108;28;20042;-93
2023/12/04 05:15:41;;;;;;;25.93;12.90;;;-0.40;99.90;;;;;;4992222;28;20137;-93
2023/12/04 05:18:07;;;;;;;26.97;13.17;;;0.60;99.90;;;;;;4993278;28;20043;-93
2023/12/04 05:20:32;;;;;;;27.77;12.40;;;0.60;99.90;;;;;;4991862;28;20104;-93
2023/12/04 05:23:04;;;;;;;25.37;12.27;;;-0.40;99.90;;;;;;4991789;28;20058;-94
2023/12/04 05:25:30;;;;;;;27.73;12.47;;;1.10;99.90;;;;;;4991988;28;20057;-92
2023/12/04 05:28:02;;;;;;;25.70;12.00;;;0.30;99.90;;;;;;4991419;28;20050;-93
2023/12/04 05:30:27;;;;;;;28.20;12.97;;;0.00;99.90;;;;;;4993474;28;20474;-92
2023/12/04 05:33:11;;;;;;;;;;;1.40;99.90;;;;;;4998085;28;20561;-93
2023/12/04 05:35:37;;;;;;;27.27;12.67;;;-0.20;99.90;;;;;;4996951;28;19922;-93
2023/12/04 05:38:03;;;;;;;26.03;12.33;;;0.10;99.90;;;;;;4995573;28;20130;-93
2023/12/04 05:40:29;;;;;;;28.03;12.73;;;-0.40;99.90;;;;;;4980792;28;20053;-92
2023/12/04 05:42:54;;;;;;;25.30;11.93;;;-0.20;99.90;;;;;;4979842;28;20058;-92
2023/12/04 05:45:21;;;;;;;25.90;12.23;;;-0.40;99.90;;;;;;4978994;28;20057;-93
2023/12/04 05:47:47;;;;;;;25.27;11.70;;;-0.30;99.90;;;;;;4978775;28;20046;-93
2023/12/04 05:50:12;;;;;;;25.07;11.90;;;-0.20;99.90;;;;;;4975345;28;20055;-93
2023/12/04 05:52:39;;;;;;;24.77;11.60;;;-0.30;99.90;;;;;;4959544;28;20089;-93
2023/12/04 05:55:05;;;;;;;25.57;12.30;;;0.90;99.90;;;;;;4958174;28;20133;-93
2023/12/04 05:57:30;;;;;;;26.63;11.40;;;0.00;99.90;;;;;;4959692;28;20129;-93
2023/12/04 05:59:56;;;;;;;24.80;11.80;;;1.00;99.90;;;;;;4959211;28;20551;-93
2023/12/04 06:02:22;;;;;;;25.70;12.20;;;0.20;99.90;;;;;;4959394;28;20059;-93
2023/12/04 06:04:47;;;;;;;25.97;11.60;;;0.80;99.90;;;;;;4970312;28;20046;-93
2023/12/04 06:07:13;;;;;;;25.33;12.43;;;-0.40;99.90;;;;;;4977890;28;20065;-93
2023/12/04 06:09:39;;;;;;;22.23;10.77;;;1.40;99.90;;;;;;4977174;28;20054;-93
2023/12/04 06:12:09;;;;;;;27.80;11.80;;;0.80;99.90;;;;;;4974587;28;20023;-92
2023/12/04 06:14:50;;;;;;;25.93;11.80;;;0.60;99.90;;;;;;4983065;28;20058;-92
2023/12/04 06:17:29;;;;;;;22.83;11.40;;;-0.40;99.90;;;;;;4983308;28;20050;-93
2023/12/04 06:20:06;;;;;;;24.63;11.33;;;-0.40;99.90;;;;;;4973605;28;20078;-92
2023/12/04 06:22:44;;;;;;;24.33;11.93;;;-0.10;99.90;;;;;;4958823;28;20038;-92
2023/12/04 06:25:10;;;;;;;25.97;11.37;;;0.10;99.90;;;;;;4958161;28;20113;-90
2023/12/04 06:27:39;;;;;;;28.13;12.73;;;0.00;99.90;;;;;;4958225;28;20451;-90
2023/12/04 06:30:06;;;;;;;23.83;11.13;;;-0.30;99.90;;;;;;4958398;28;20511;-90
2023/12/04 06:32:32;;;;;;;26.77;11.60;;;0.00;99.90;;;;;;4958978;28;20050;-92
2023/12/04 06:34:58;;;;;;;24.57;12.20;;;0.00;99.90;;;;;;4974578;28;20048;-91
2023/12/04 06:37:24;;;;;;;24.47;11.43;;;0.20;99.90;;;;;;4976919;28;20054;-91
2023/12/04 06:39:53;;;;;;;26.73;12.47;;;-0.10;99.90;;;;;;4978236;28;20144;-92
2023/12/04 06:42:19;;;;;;;24.20;11.73;;;-0.10;99.90;;;;;;4977549;28;20410;-92
2023/12/04 06:44:45;;;;;;;24.57;11.30;;;-0.10;99.90;;;;;;4977058;28;20056;-92
2023/12/04 06:47:12;;;;;;;24.03;11.17;;;-0.10;99.90;;;;;;4977736;28;20041;-92
2023/12/04 06:49:38;;;;;;;24.00;11.13;;;-0.30;99.90;;;;;;4979219;28;20042;-92
2023/12/04 06:52:04;;;;;;;22.17;11.17;;;-0.40;99.90;;;;;;4976576;28;20053;-91
2023/12/04 06:54:30;;;;;;;23.93;11.53;;;-1.00;99.90;;;;;;4977638;28;20398;-92
2023/12/04 06:56:56;;;;;;;21.67;10.73;;;1.10;99.90;;;;;;4977693;28;20049;-92
2023/12/04 06:59:21;;;;;;;25.40;11.47;;;0.80;99.90;;;;;;4977107;28;20108;-91
2023/12/04 07:01:47;;;;;;;25.80;12.13;;;-0.30;99.90;;;;;;4977694;28;20049;-92
2023/12/04 07:04:13;;;;;;;25.07;10.83;;;0.20;99.90;;;;;;4977582;28;20042;-92
2023/12/04 07:06:40;;;;;;;23.30;11.33;;;-0.40;99.90;;;;;;4976418;28;20093;-83
2023/12/04 07:09:08;;;;;;;23.80;10.93;;;0.30;99.90;;;;;;4976521;28;20054;-83
2023/12/04 07:11:34;;;;;;;24.83;11.10;;;0.00;99.90;;;;;;4977313;28;20050;-84
2023/12/04 07:13:59;;;;;;;22.63;10.87;;;-0.20;99.90;;;;;;4976013;28;20050;-85
2023/12/04 07:16:25;;;;;;;24.33;10.77;;;-0.30;99.90;;;;;;4976285;28;20050;-85
2023/12/04 07:18:51;;;;;;;26.13;11.43;;;-0.20;99.90;;;;;;4993561;28;20375;-84
2023/12/04 07:21:28;;;;;;;22.93;11.47;;;-0.20;99.90;;;;;;4976519;28;20046;-85
2023/12/04 07:23:54;;;;;;;24.23;11.07;;;1.00;99.90;;;;;;4975452;28;20090;-85
2023/12/04 07:26:20;;;;;;;22.80;10.83;;;-0.30;99.90;;;;;;4975865;28;20159;-85
2023/12/04 07:28:45;;;;;;;21.40;10.33;;;-0.40;99.90;;;;;;4976999;28;20409;-84
2023/12/04 07:31:11;;;;;;;20.37;10.43;;;-0.40;99.90;;;;;;4976063;28;20388;-85
2023/12/04 07:33:37;;;;;;;21.17;10.70;;;-0.20;99.90;;;;;;4972906;28;20043;-84
2023/12/04 07:36:03;;;;;;;20.67;10.10;;;-0.20;99.90;;;;;;4956877;28;20116;-85
2023/12/04 07:38:28;;;;;;;21.97;10.33;;;-0.20;99.90;;;;;;4957346;28;20046;-83
2023/12/04 07:40:54;;;;;;;20.73;10.33;;;-0.20;99.90;;;;;;4957927;28;20097;-83
2023/12/04 07:43:19;;;;;;;19.87;9.73;;;-0.20;99.90;;;;;;4976181;28;20062;-84
2023/12/04 07:45:45;;;;;;;20.03;9.40;;;-0.10;99.90;;;;;;4976296;28;20044;-83
2023/12/04 07:48:11;;;;;;;19.23;9.63;;;-0.10;99.90;;;;;;4975310;28;20592;-83
2023/12/04 07:50:37;;;;;;;19.50;9.23;;;-0.20;99.90;;;;;;4976492;28;20141;-82
2023/12/04 07:53:03;;;;;;;18.87;9.57;;;-0.20;99.90;;;;;;4975993;28;20056;-83
2023/12/04 07:55:29;;;;;;;18.87;9.07;;;-0.10;99.90;;;;;;4974619;28;20054;-82
2023/12/04 07:57:56;;;;;;;19.40;9.00;;;-0.10;99.90;;;;;;4976120;28;20034;-82
2023/12/04 08:00:26;;;;;;;19.30;9.30;;;-0.10;99.90;;;;;;4976223;28;20391;-84
2023/12/04 08:02:51;;;;;;;18.17;8.67;;;-0.10;99.90;;;;;;4974744;28;20042;-82
2023/12/04 08:05:17;;;;;;;19.20;9.40;;;-0.10;99.90;;;;;;4975549;28;20038;-86
2023/12/04 08:07:46;;;;;;;19.33;9.07;;;-0.10;99.90;;;;;;4975613;28;20184;-83
2023/12/04 08:10:12;;;;;;;18.13;8.70;;;-0.20;99.90;;;;;;4974841;28;20043;-83
2023/12/04 08:12:37;;;;;;;17.43;8.50;;;1.10;99.90;;;;;;4975976;28;20046;-82
2023/12/04 08:15:04;;;;;;;18.73;8.03;;;0.00;99.90;;;;;;4991783;28;20049;-84
2023/12/04 08:17:30;;;;;;;17.83;8.47;;;0.00;99.90;;;;;;4975939;28;20046;-84
2023/12/04 08:19:56;;;;;;;17.70;8.13;;;0.10;99.90;;;;;;4975617;28;20038;-84
2023/12/04 08:22:31;;;;;;;18.10;8.17;;;0.00;99.90;;;;;;4975151;28;20046;-83
2023/12/04 08:25:00;;;;;;;17.87;8.43;;;1.30;99.90;;;;;;4960923;28;20532;-84
2023/12/04 08:27:25;;;;;;;17.90;8.40;;;-0.10;99.90;;;;;;4959110;28;20133;-83
2023/12/04 08:29:51;;;;;;;18.90;8.57;;;0.10;99.90;;;;;;4960687;28;20047;-83
2023/12/04 08:32:21;;;;;;;17.13;8.57;;;0.10;99.90;;;;;;4963565;28;20042;-84
2023/12/04 08:35:06;;;;;;;18.23;8.70;;;0.20;99.90;;;;;;4959539;28;20050;-84
2023/12/04 08:37:44;;;;;;;17.13;8.43;;;0.20;99.90;;;;;;4955333;28;20100;-84
2023/12/04 08:40:12;;;;;;;16.57;8.20;;;-0.30;99.90;;;;;;4963662;28;20651;-84
2023/12/04 08:42:38;;;;;;;18.10;8.23;;;0.20;99.90;;;;;;4972768;28;20053;-85
2023/12/04 08:45:13;;;;;;;16.63;8.13;;;0.00;99.90;;;;;;4960484;28;20046;-85
2023/12/04 08:47:44;;;;;;;17.67;8.17;;;0.00;99.90;;;;;;4973561;28;20497;-85
2023/12/04 08:50:13;;;;;;;17.63;7.67;;;1.20;99.90;;;;;;4972632;28;20093;-85
2023/12/04 08:52:41;;;;;;;16.90;7.83;;;0.50;99.90;;;;;;4971135;28;20117;-86
2023/12/04 08:55:16;;;;;;;16.10;7.37;;;-0.30;99.90;;;;;;4973046;28;20042;-85
2023/12/04 08:57:41;;;;;;;16.17;7.73;;;0.00;99.90;;;;;;4972678;28;20038;-85
2023/12/04 09:00:11;;;;;;;16.33;7.57;;;0.70;99.90;;;;;;4972851;28;20552;-85
2023/12/04 09:02:37;;;;;;;14.93;7.20;;;0.40;99.90;;;;;;4972476;28;20053;-85
2023/12/04 09:05:16;;;;;;;15.97;7.50;;;0.30;99.90;;;;;;4967551;28;20046;-85
2023/12/04 09:07:41;;;;;;;15.30;7.33;;;0.20;99.90;;;;;;4972468;23;20139;-84
2023/12/04 09:10:07;;;;;;;15.23;7.07;;;0.50;99.90;;;;;;4968262;28;20066;-84
2023/12/04 09:12:45;;;;;;;14.93;6.83;;;0.50;99.90;;;;;;4983945;28;20098;-84
2023/12/04 09:15:11;;;;;;;17.20;7.70;;;0.40;99.90;;;;;;4973656;28;20054;-85
2023/12/04 09:17:37;;;;;;;14.07;6.63;;;0.60;99.90;;;;;;4961540;28;20043;-85
2023/12/04 09:20:05;;;;;;;14.13;6.97;;;0.60;99.90;;;;;;4959515;28;20047;-85
2023/12/04 09:22:37;;;;;;;15.53;7.90;;;0.70;99.90;;;;;;4960516;28;20043;-85
2023/12/04 09:25:08;;;;;;;15.20;7.60;;;1.70;99.90;;;;;;4959440;28;20403;-85
2023/12/04 09:27:34;;;;;;;16.40;7.80;;;0.80;99.90;;;;;;4986226;23;20502;-84
2023/12/04 09:30:00;;;;;;;15.27;7.03;;;0.80;99.90;;;;;;4978945;28;20046;-85
2023/12/04 09:32:25;;;;;;;14.53;7.07;;;0.90;99.90;;;;;;4977718;28;20054;-85
2023/12/04 09:34:51;;;;;;;15.10;7.33;;;0.90;99.90;;;;;;4979220;28;20038;-85
2023/12/04 09:37:17;;;;;;;15.23;7.47;;;1.00;99.90;;;;;;4978484;28;20046;-85
2023/12/04 09:39:42;;;;;;;15.53;7.20;;;1.00;99.90;;;;;;4977863;28;20046;-85
2023/12/04 09:42:09;;;;;;;14.57;7.47;;;1.00;99.90;;;;;;4978361;28;20050;-86
2023/12/04 09:44:36;;;;;;;14.57;7.00;;;1.10;99.90;;;;;;4977883;28;20054;-85
2023/12/04 09:47:04;;;;;;;15.17;7.13;;;1.10;99.90;;;;;;4977592;28;20054;-87
2023/12/04 09:49:31;;;;;;;14.60;6.77;;;1.10;99.90;;;;;;4977841;28;20054;-87
2023/12/04 09:52:01;;;;;;;14.60;6.90;;;1.20;99.90;;;;;;4978357;28;20375;-86
2023/12/04 09:54:27;;;;;;;14.87;7.07;;;1.20;99.90;;;;;;4977814;28;20507;-85
2023/12/04 09:56:53;;;;;;;16.20;7.00;;;1.20;99.90;;;;;;4977966;28;20050;-85
2023/12/04 09:59:24;;;;;;;16.57;7.03;;;1.30;99.90;;;;;;4978818;28;20154;-85
2023/12/04 10:01:51;;;;;;;14.20;6.63;;;1.30;99.90;;;;;;4978085;28;20050;-86
2023/12/04 10:04:16;;;;;;;14.33;6.47;;;1.40;99.90;;;;;;4978210;28;20454;-85
2023/12/04 10:06:45;;;;;;;13.23;6.03;;;1.40;99.90;;;;;;4978313;28;20042;-85
2023/12/04 10:09:13;;;;;;;14.07;6.73;;;1.40;99.90;;;;;;4977685;28;20042;-84
2023/12/04 10:11:41;;;;;;;14.37;6.10;;;1.40;99.90;;;;;;4995515;28;20053;-85
2023/12/04 10:14:16;;;;;;;14.63;6.33;;;1.50;99.90;;;;;;4977823;28;20482;-84
2023/12/04 10:16:42;;;;;;;12.50;6.30;;;1.60;99.90;;;;;;4976671;28;20046;-84
2023/12/04 10:19:19;;;;;;;14.00;5.67;;;1.60;99.90;;;;;;4973830;28;20047;-85
2023/12/04 10:21:46;;;;;;;13.30;6.33;;;1.60;99.90;;;;;;4957715;28;20505;-87
2023/12/04 10:24:12;;;;;;;12.47;5.73;;;1.70;99.90;;;;;;4957887;28;20137;-83
2023/12/04 10:26:49;;;;;;;14.67;6.83;;;1.70;99.90;;;;;;4955159;29;20189;-84
2023/12/04 10:29:14;;;;;;;15.10;7.17;;;1.70;99.90;;;;;;4972046;28;20479;-82
2023/12/04 10:31:40;;;;;;;14.93;7.10;;;1.80;99.90;;;;;;4973979;28;20105;-83
2023/12/04 10:34:06;;;;;;;17.50;7.30;;;1.70;99.90;;;;;;4973726;28;20414;-82
2023/12/04 10:36:32;;;;;;;15.27;7.13;;;1.70;99.90;;;;;;4973701;28;20105;-84
2023/12/04 10:39:04;;;;;;;13.27;6.33;;;1.70;99.90;;;;;;4974390;28;20406;-84
2023/12/04 10:41:31;;;;;;;13.87;6.27;;;1.80;99.90;;;;;;4974011;28;20134;-85
2023/12/04 10:43:57;;;;;;;14.37;6.50;;;1.80;99.90;;;;;;4973364;28;20042;-84
2023/12/04 10:46:24;;;;;;;13.97;6.20;;;1.80;99.90;;;;;;4974344;28;20550;-85
2023/12/04 10:48:51;;;;;;;13.97;6.20;;;1.90;99.90;;;;;;4974539;28;20043;-85
2023/12/04 10:51:17;;;;;;;12.97;6.13;;;1.90;99.90;;;;;;4973451;28;20051;-85
2023/12/04 10:53:44;;;;;;;13.00;5.90;;;2.80;99.90;;;;;;4974957;28;20494;-90
2023/12/04 10:56:15;;;;;;;12.60;5.97;;;1.90;99.90;;;;;;4973776;28;20047;-88
2023/12/04 10:58:41;;;;;;;15.10;6.33;;;1.90;99.90;;;;;;4973294;28;20050;-86
2023/12/04 11:01:11;;;;;;;12.63;5.73;;;1.80;99.90;;;;;;4973020;28;20116;-87
2023/12/04 11:04:01;;;;;;;13.27;6.03;;;2.40;99.90;;;;;;4973551;28;20074;-87
2023/12/04 11:06:31;;;;;;;13.23;6.27;;;0.60;99.90;;;;;;4974457;28;20403;-85
2023/12/04 11:09:08;;;;;;;12.50;5.50;;;1.90;99.90;;;;;;4973235;28;20053;-84
2023/12/04 11:11:44;;;;;;;14.70;6.07;;;2.20;99.90;;;;;;4967073;28;20051;-84
2023/12/04 11:14:18;;;;;;;13.90;5.80;;;1.70;99.90;;;;;;4954236;29;20047;-84
2023/12/04 11:17:05;;;;;;;13.20;5.77;;;2.80;99.90;;;;;;4967416;28;20186;-82
2023/12/04 11:20:00;;;;;;;11.10;5.13;;;2.30;99.90;;;;;;4973124;28;20054;-83
2023/12/04 11:22:26;;;;;;;12.80;5.67;;;1.90;99.90;;;;;;4973253;28;20051;-83
2023/12/04 11:24:52;;;;;;;12.20;5.47;;;1.90;99.90;;;;;;4969505;28;20128;-83
2023/12/04 11:27:18;;;;;;;13.87;6.50;;;1.90;99.90;;;;;;4958973;28;20047;-82
2023/12/04 11:29:46;;;;;;;14.10;6.00;;;2.00;99.90;;;;;;4953870;28;20055;-83
2023/12/04 11:32:16;;;;;;;14.10;6.53;;;2.00;99.90;;;;;;4955827;28;20042;-82
2023/12/04 11:34:52;;;;;;;12.10;6.00;;;1.90;99.90;;;;;;4953596;28;20051;-82
2023/12/04 11:37:19;;;;;;;12.90;6.00;;;2.00;99.90;;;;;;4953284;28;20377;-83
2023/12/04 11:39:49;;;;;;;14.60;6.40;;;2.00;99.90;;;;;;4953072;29;20051;-83
2023/12/04 11:42:20;;;;;;;12.03;6.17;;;2.10;99.90;;;;;;4952179;29;20084;-83
2023/12/04 11:44:49;;;;;;;13.47;6.27;;;3.50;99.90;;;;;;4953222;29;20051;-83
2023/12/04 11:47:15;;;;;;;14.00;6.63;;;2.10;99.90;;;;;;4952101;28;20047;-83
2023/12/04 11:49:41;;;;;;;12.87;5.97;;;2.10;99.90;;;;;;4954031;29;20035;-83
2023/12/04 11:52:07;;;;;;;12.57;6.23;;;2.00;99.90;;;;;;4954687;29;20530;-83
2023/12/04 11:55:07;;;;;;;12.73;6.20;;;2.20;99.90;;;;;;4953160;29;20047;-84
2023/12/04 11:57:37;;;;;;;14.15;6.22;;;2.50;99.90;;;;;;4954796;29;20035;-83
2023/12/04 12:00:18;;;;;;;13.90;6.30;;;1.80;99.90;;;;;;4948629;29;20487;-81
2023/12/04 12:02:53;;;;;;;14.30;6.93;;;2.20;99.90;;;;;;4952013;29;20086;-81
2023/12/04 12:05:23;;;;;;;13.83;6.30;;;2.20;99.90;;;;;;4956023;28;20051;-81
2023/12/04 12:07:49;;;;;;;13.60;6.37;;;2.20;99.90;;;;;;4973256;28;20038;-81
2023/12/04 12:10:16;;;;;;;12.93;6.13;;;2.20;99.90;;;;;;4954926;28;20050;-84
2023/12/04 12:12:44;;;;;;;13.30;6.43;;;2.20;99.90;;;;;;4969660;28;20023;-83
2023/12/04 12:15:11;;;;;;;15.03;6.40;;;2.20;99.90;;;;;;4979852;28;20043;-82
2023/12/04 12:17:41;;;;;;;12.97;5.83;;;2.20;99.90;;;;;;4957621;28;20042;-82
2023/12/04 12:20:12;;;;;;;15.20;6.30;;;2.20;99.90;;;;;;4955400;28;20058;-81
2023/12/04 12:22:43;;;;;;;13.53;6.73;;;2.20;99.90;;;;;;4951149;29;20415;-81
2023/12/04 12:25:10;;;;;;;13.73;6.37;;;2.20;99.90;;;;;;4952396;28;20459;-81
2023/12/04 12:27:36;;;;;;;13.13;5.83;;;2.20;99.90;;;;;;4963103;28;20050;-82
2023/12/04 12:30:04;;;;;;;13.37;5.87;;;2.10;99.90;;;;;;4970537;28;20058;-82
2023/12/04 12:32:33;;;;;;;13.07;6.33;;;2.20;99.90;;;;;;4963625;28;20450;-82
2023/12/04 12:34:58;;;;;;;14.03;6.10;;;2.20;99.90;;;;;;4964734;28;20129;-82
2023/12/04 12:37:24;;;;;;;13.53;6.57;;;2.20;99.90;;;;;;4963397;28;20130;-82
2023/12/04 12:39:51;;;;;;;12.93;6.00;;;2.20;99.90;;;;;;4961668;28;20102;-82
2023/12/04 12:42:25;;;;;;;12.90;6.10;;;2.30;99.90;;;;;;4960461;28;20544;-81
2023/12/04 12:44:50;;;;;;;;;;;2.20;99.90;;;;;;4965521;28;20065;-82
2023/12/04 12:47:18;;;;;;;12.77;5.70;;;2.20;99.90;;;;;;4962891;28;20004;-82
2023/12/04 12:49:45;;;;;;;13.63;6.47;;;2.20;99.90;;;;;;4973103;28;20042;-82
2023/12/04 12:52:11;;;;;;;12.87;6.37;;;2.20;99.90;;;;;;4975993;28;20043;-83
2023/12/04 12:54:41;;;;;;;13.07;6.10;;;2.20;99.90;;;;;;4976316;28;20043;-82
2023/12/04 12:57:07;;;;;;;13.17;6.53;;;2.20;99.90;;;;;;4974886;28;20050;-81
2023/12/04 12:59:33;;;;;;;14.30;6.53;;;2.10;99.90;;;;;;4973917;28;20051;-81
2023/12/04 13:02:00;;;;;;;12.80;6.33;;;2.10;99.90;;;;;;4974165;28;20507;-81